createdAt,value
2022-10-05T00:00:59.707Z,6.03
2022-10-05T00:05:02.050Z,5.30
2022-10-05T00:09:13.898Z,5.07
2022-10-05T00:13:23.460Z,5.00
2022-10-05T00:17:29.614Z,5.18
2022-10-05T00:21:33.941Z,4.95
2022-10-05T00:25:36.327Z,4.60
2022-10-05T00:29:39.527Z,4.80
2022-10-05T00:33:42.898Z,5.75
2022-10-05T00:37:47.784Z,6.13
2022-10-05T00:42:07.356Z,5.55
2022-10-05T00:46:33.044Z,4.47
2022-10-05T00:50:42.259Z,5.22
2022-10-05T00:54:53.999Z,4.93
2022-10-05T00:59:11.612Z,4.60
2022-10-05T01:03:36.571Z,5.10
2022-10-05T01:08:00.360Z,4.80
2022-10-05T01:12:33.218Z,4.55
2022-10-05T01:16:45.264Z,4.80
2022-10-05T01:21:05.653Z,5.13
2022-10-05T01:25:20.379Z,4.88
2022-10-05T01:33:33.652Z,4.75
2022-10-05T01:37:42.359Z,5.30
2022-10-05T01:42:00.042Z,5.38
2022-10-05T01:46:39.386Z,4.93
2022-10-05T01:51:00.723Z,5.30
2022-10-05T01:55:05.961Z,5.38
2022-10-05T01:59:33.647Z,6.25
2022-10-05T02:03:47.388Z,5.55
2022-10-05T02:08:00.393Z,4.38
2022-10-05T02:12:13.110Z,4.53
2022-10-05T02:16:28.826Z,4.75
2022-10-05T02:20:35.276Z,5.43
2022-10-05T02:25:14.425Z,4.80
2022-10-05T02:29:21.807Z,5.35
2022-10-05T02:40:12.249Z,5.43
2022-10-05T02:44:21.946Z,4.90
2022-10-05T02:48:36.777Z,5.30
2022-10-05T02:53:13.324Z,5.32
2022-10-05T02:57:42.136Z,5.25
2022-10-05T03:02:13.956Z,5.32
2022-10-05T03:06:22.844Z,5.15
2022-10-05T03:10:34.509Z,5.38
2022-10-05T03:14:59.298Z,5.10
2022-10-05T03:19:32.797Z,4.63
2022-10-05T03:23:51.117Z,4.50
2022-10-05T03:28:03.175Z,4.97
2022-10-05T03:32:17.026Z,6.40
2022-10-05T03:36:26.103Z,4.70
2022-10-05T03:40:44.957Z,4.55
2022-10-05T03:45:02.297Z,4.70
2022-10-05T03:49:17.264Z,5.07
2022-10-05T03:53:27.442Z,5.00
2022-10-05T03:57:36.299Z,4.75
2022-10-05T04:01:48.735Z,4.60
2022-10-05T04:05:56.503Z,4.93
2022-10-05T04:10:02.171Z,5.03
2022-10-05T04:14:11.759Z,5.18
2022-10-05T04:18:32.788Z,4.40
2022-10-05T04:22:46.946Z,5.47
2022-10-05T04:27:00.269Z,4.82
2022-10-05T04:31:07.169Z,5.30
2022-10-05T04:35:33.846Z,4.90
2022-10-05T04:40:00.933Z,7.15
2022-10-05T04:44:15.749Z,4.60
2022-10-05T04:48:27.270Z,5.47
2022-10-05T04:52:57.196Z,5.28
2022-10-05T04:57:02.120Z,4.55
2022-10-05T05:01:28.639Z,4.90
2022-10-05T05:05:48.349Z,5.10
2022-10-05T05:10:18.089Z,5.00
2022-10-05T05:19:46.935Z,6.20
2022-10-05T05:24:21.138Z,6.28
2022-10-05T05:28:52.214Z,6.00
2022-10-05T05:33:21.314Z,6.47
2022-10-05T05:37:41.117Z,5.72
2022-10-05T05:42:34.082Z,6.20
2022-10-05T05:47:02.349Z,5.65
2022-10-05T05:51:14.929Z,5.47
2022-10-05T05:55:29.927Z,5.35
2022-10-05T06:00:02.087Z,6.07
2022-10-05T06:04:13.427Z,5.40
2022-10-05T06:08:27.628Z,5.63
2022-10-05T06:12:41.667Z,4.90
2022-10-05T06:16:54.180Z,6.00
2022-10-05T06:21:31.425Z,6.85
2022-10-05T06:25:54.250Z,7.10
2022-10-05T06:30:05.569Z,7.03
2022-10-05T06:34:37.329Z,8.00
2022-10-05T06:38:52.863Z,8.30
2022-10-05T06:43:02.729Z,8.30
2022-10-05T06:47:17.382Z,8.27
2022-10-05T06:52:22.539Z,8.27
2022-10-05T06:56:30.198Z,8.18
2022-10-05T07:00:40.727Z,7.70
2022-10-05T07:05:00.209Z,9.70
2022-10-05T07:09:02.477Z,8.38
2022-10-05T07:13:42.655Z,7.05
2022-10-05T07:18:12.987Z,7.32
2022-10-05T07:22:30.452Z,7.18
2022-10-05T07:26:46.793Z,7.30
2022-10-05T07:31:03.705Z,7.28
2022-10-05T07:35:57.518Z,6.88
2022-10-05T07:40:21.202Z,6.60
2022-10-05T07:44:36.508Z,6.43
2022-10-05T07:48:57.623Z,6.38
2022-10-05T07:53:21.122Z,6.05
2022-10-05T07:57:53.819Z,5.55
2022-10-05T08:02:22.056Z,5.55
2022-10-05T08:06:33.198Z,5.10
2022-10-05T08:10:38.248Z,5.43
2022-10-05T08:14:46.567Z,4.55
2022-10-05T08:19:07.787Z,4.18
2022-10-05T08:23:22.559Z,4.65
2022-10-05T08:27:48.989Z,4.57
2022-10-05T08:31:58.485Z,4.20
2022-10-05T08:36:14.840Z,4.30
2022-10-05T08:40:35.237Z,4.60
2022-10-05T08:45:12.629Z,3.78
2022-10-05T08:49:42.525Z,3.72
2022-10-05T08:53:50.328Z,3.20
2022-10-05T08:58:19.999Z,3.05
2022-10-05T09:02:41.599Z,2.90
2022-10-05T09:07:07.054Z,2.42
2022-10-05T09:11:37.464Z,2.42
2022-10-05T09:15:42.544Z,2.22
2022-10-05T09:19:53.791Z,1.98
2022-10-05T09:24:48.384Z,2.58
2022-10-05T09:29:06.084Z,2.53
2022-10-05T09:33:42.663Z,2.13
2022-10-05T09:38:07.213Z,2.53
2022-10-05T09:46:14.190Z,2.55
2022-10-05T09:50:56.383Z,2.67
2022-10-05T09:55:10.590Z,2.72
2022-10-05T09:59:38.236Z,2.85
2022-10-05T10:04:10.312Z,2.30
2022-10-05T10:08:24.620Z,2.58
2022-10-05T10:12:36.046Z,2.20
2022-10-05T10:17:02.515Z,2.58
2022-10-05T10:21:20.166Z,2.05
2022-10-05T10:25:37.818Z,2.60
2022-10-05T10:29:43.120Z,1.73
2022-10-05T10:34:00.329Z,1.65
2022-10-05T10:38:28.802Z,1.70
2022-10-05T10:42:40.231Z,1.40
2022-10-05T10:47:08.725Z,1.70
2022-10-05T10:51:17.542Z,1.50
2022-10-05T10:55:38.253Z,1.60
2022-10-05T11:00:08.358Z,1.67
2022-10-05T11:04:40.041Z,1.95
2022-10-05T11:09:08.290Z,2.17
2022-10-05T11:13:33.571Z,1.77
2022-10-05T11:18:10.271Z,1.30
2022-10-05T11:22:40.680Z,1.67
2022-10-05T11:27:05.049Z,1.33
2022-10-05T11:31:45.186Z,1.25
2022-10-05T11:36:09.100Z,1.10
2022-10-05T11:40:51.267Z,1.50
2022-10-05T11:45:31.281Z,1.30
2022-10-05T11:49:33.312Z,1.10
2022-10-05T11:54:06.374Z,1.30
2022-10-05T11:58:32.640Z,1.40
2022-10-05T12:03:14.331Z,1.00
2022-10-05T12:07:35.957Z,1.30
2022-10-05T12:11:54.365Z,1.17
2022-10-05T12:16:10.538Z,1.02
2022-10-05T12:20:23.042Z,1.20
2022-10-05T12:24:30.941Z,1.00
2022-10-05T12:28:43.565Z,0.80
2022-10-05T12:33:02.281Z,0.93
2022-10-05T12:37:42.970Z,0.85
2022-10-05T12:42:18.081Z,0.80
2022-10-05T12:46:51.896Z,0.85
2022-10-05T12:51:04.095Z,0.67
2022-10-05T12:55:21.858Z,1.10
2022-10-05T12:59:27.034Z,1.30
2022-10-05T13:03:46.284Z,1.15
2022-10-05T13:07:58.131Z,1.02
2022-10-05T13:12:19.458Z,1.02
2022-10-05T13:16:37.876Z,0.93
2022-10-05T13:20:50.573Z,0.77
2022-10-05T13:25:17.687Z,1.35
2022-10-05T13:30:07.433Z,0.77
2022-10-05T13:39:27.539Z,0.90
2022-10-05T13:43:58.806Z,0.90
2022-10-05T13:48:13.480Z,1.00
2022-10-05T13:52:43.826Z,1.10
2022-10-05T13:57:01.911Z,0.80
2022-10-05T14:01:41.692Z,1.30
2022-10-05T14:05:55.847Z,1.27
2022-10-05T14:10:00.147Z,1.15
2022-10-05T14:14:26.820Z,1.25
2022-10-05T14:18:32.826Z,1.17
2022-10-05T14:22:41.872Z,1.35
2022-10-05T14:26:51.585Z,1.33
2022-10-05T14:31:02.646Z,1.30
2022-10-05T14:35:11.589Z,1.40
2022-10-05T14:39:15.669Z,0.82
2022-10-05T14:43:20.473Z,1.40
2022-10-05T14:47:24.070Z,1.27
2022-10-05T14:51:30.567Z,1.33
2022-10-05T14:56:03.299Z,1.63
2022-10-05T15:00:13.473Z,4.65
2022-10-05T15:04:30.503Z,2.15
2022-10-05T15:09:00.781Z,1.60
2022-10-05T15:13:24.425Z,1.30
2022-10-05T15:17:35.059Z,2.15
2022-10-05T15:22:04.810Z,1.40
2022-10-05T15:26:43.030Z,1.40
2022-10-05T15:31:02.171Z,1.60
2022-10-05T15:35:16.305Z,1.45
2022-10-05T15:39:34.702Z,2.75
2022-10-05T15:43:55.452Z,2.85
2022-10-05T15:48:16.195Z,2.55
2022-10-05T15:52:39.178Z,3.15
2022-10-05T15:56:52.785Z,3.35
2022-10-05T16:01:02.513Z,3.20
2022-10-05T16:05:19.961Z,3.40
2022-10-05T16:09:35.163Z,3.10
2022-10-05T16:13:59.772Z,2.42
2022-10-05T16:18:20.805Z,1.83
2022-10-05T16:22:43.343Z,2.20
2022-10-05T16:26:54.825Z,1.80
2022-10-05T16:30:58.909Z,1.95
2022-10-05T16:35:38.892Z,1.80
2022-10-05T16:39:52.386Z,2.40
2022-10-05T16:44:07.881Z,2.50
2022-10-05T16:48:17.417Z,2.47
2022-10-05T16:52:23.519Z,2.65
2022-10-05T16:56:34.326Z,3.50
2022-10-05T17:01:01.022Z,2.80
2022-10-05T17:05:34.329Z,3.17
2022-10-05T17:09:54.700Z,2.42
2022-10-05T17:14:30.717Z,2.55
2022-10-05T17:19:13.458Z,2.47
2022-10-05T17:23:29.389Z,1.98
2022-10-05T17:27:32.928Z,2.05
2022-10-05T17:32:09.884Z,2.83
2022-10-05T17:36:18.259Z,2.83
2022-10-05T17:40:29.644Z,2.90
2022-10-05T17:44:35.155Z,3.05
2022-10-05T17:48:49.063Z,3.15
2022-10-05T17:53:52.625Z,2.50
2022-10-05T17:58:19.819Z,2.90
2022-10-05T18:02:36.198Z,2.63
2022-10-05T18:06:41.765Z,3.80
2022-10-05T18:11:11.116Z,4.80
2022-10-05T18:15:21.352Z,4.80
2022-10-05T18:19:23.686Z,4.85
2022-10-05T18:23:29.418Z,5.00
2022-10-05T18:27:45.427Z,5.05
2022-10-05T18:31:59.798Z,4.53
2022-10-05T18:36:22.325Z,5.32
2022-10-05T18:40:47.781Z,6.00
2022-10-05T18:44:57.345Z,6.82
2022-10-05T18:49:24.085Z,6.10
2022-10-05T18:53:31.715Z,5.82
2022-10-05T18:58:09.017Z,5.35
2022-10-05T19:02:20.544Z,7.15
2022-10-05T19:06:28.720Z,5.93
2022-10-05T19:10:50.915Z,5.70
2022-10-05T19:15:01.032Z,6.28
2022-10-05T19:19:35.375Z,5.50
2022-10-05T19:24:04.572Z,6.55
2022-10-05T19:28:33.426Z,6.28
2022-10-05T19:33:17.559Z,5.93
2022-10-05T19:37:44.810Z,6.50
2022-10-05T19:41:56.238Z,6.40
2022-10-05T19:46:27.511Z,7.75
2022-10-05T19:50:32.751Z,6.07
2022-10-05T19:54:35.345Z,6.40
2022-10-05T19:58:39.986Z,6.25
2022-10-05T20:02:42.602Z,5.72
2022-10-05T20:06:44.753Z,4.70
2022-10-05T20:11:08.070Z,5.00
2022-10-05T20:15:37.338Z,5.93
2022-10-05T20:19:58.041Z,4.72
2022-10-05T20:24:11.753Z,5.07
2022-10-05T20:28:30.788Z,4.85
2022-10-05T20:32:33.750Z,4.65
2022-10-05T20:36:35.831Z,4.57
2022-10-05T20:40:39.024Z,5.18
2022-10-05T20:44:41.396Z,5.33
2022-10-05T20:48:43.600Z,5.88
2022-10-05T20:52:45.941Z,5.63
2022-10-05T20:56:47.962Z,6.32
2022-10-05T21:01:08.811Z,6.63
2022-10-05T21:05:10.987Z,6.75
2022-10-05T21:09:19.578Z,7.30
2022-10-05T21:13:21.733Z,6.70
2022-10-05T21:17:23.784Z,7.03
2022-10-05T21:21:27.354Z,6.38
2022-10-05T21:25:29.337Z,5.57
2022-10-05T21:29:31.629Z,6.20
2022-10-05T21:33:33.760Z,5.97
2022-10-05T21:37:36.269Z,6.00
2022-10-05T21:41:38.346Z,6.75
2022-10-05T21:45:41.303Z,5.85
2022-10-05T21:49:43.395Z,6.32
2022-10-05T21:54:11.833Z,6.18
2022-10-05T21:58:15.062Z,5.82
2022-10-05T22:02:17.127Z,5.20
2022-10-05T22:06:19.075Z,6.07
2022-10-05T22:10:21.150Z,5.68
2022-10-05T22:14:23.914Z,5.57
2022-10-05T22:18:26.917Z,6.35
2022-10-05T22:22:30.146Z,6.25
2022-10-05T22:26:32.510Z,7.15
2022-10-05T22:30:35.602Z,5.90
2022-10-05T22:34:37.746Z,5.85
2022-10-05T22:38:39.970Z,6.30
2022-10-05T22:42:42.061Z,5.43
2022-10-05T22:46:44.179Z,5.65
2022-10-05T22:50:46.746Z,5.80
2022-10-05T22:54:49.769Z,6.18
2022-10-05T22:58:51.905Z,5.80
2022-10-05T23:02:53.956Z,6.00
2022-10-05T23:06:56.958Z,6.15
2022-10-05T23:11:04.677Z,5.55
2022-10-05T23:15:07.547Z,6.63
2022-10-05T23:19:09.793Z,6.60
2022-10-05T23:23:11.723Z,6.32
2022-10-05T23:27:13.716Z,5.68
2022-10-05T23:31:18.621Z,5.97
2022-10-05T23:35:20.899Z,5.15
2022-10-05T23:39:23.272Z,5.03
2022-10-05T23:43:27.065Z,5.55
2022-10-05T23:47:29.168Z,5.43
2022-10-05T23:51:31.197Z,5.50
2022-10-05T23:55:33.240Z,5.10
2022-10-05T23:59:35.272Z,4.93
